Amherst, Wisconsin
Current Conditions -  °F | °C
As of 4:35 PM on Thursday 23 Oct 2014 (Local Time) from KSTE Reporting Station
Haze Haze  
Wind Chill: 45°   Ceiling: 400
Heat Index: 45°   Visibility: 2mi
Dew Point: 45°   Wind: 0mph
Humidity: 99%   Direction: NA
Pressure: 30.03"   Gusts: NA
Location:  44.45°N, 89.28°W
Report Text: KSTE 232135Z AUTO 00000KT 2SM BR OVC004 07/07 A3003 RMK AO2 P0001 T00720070
Loading
Personal Weather Stations






























Interactive Weather Map
Tropical Storm Tracking
New forecast layout! Learn more

10-Day Weather Forecast

Advertisements
Track Severe Weather on mobile